createdAt,value
2016-04-20T08:26:48.141Z,115
2016-04-20T08:27:50.003Z,120
2016-04-20T08:28:50.615Z,130
2016-04-20T08:29:50.618Z,135
2016-04-20T08:30:50.621Z,140
2016-04-20T08:31:50.623Z,130
2016-04-20T08:32:50.641Z,125
2016-04-20T08:33:50.988Z,125
2016-04-20T08:34:51.068Z,120
2016-04-20T08:35:50.665Z,115
2016-04-20T08:36:50.683Z,125
2016-04-20T08:37:50.685Z,120
2016-04-20T08:38:50.798Z,125
2016-04-20T08:39:50.691Z,125
2016-04-20T08:40:50.710Z,130
2016-04-20T08:41:50.728Z,125
2016-04-20T08:42:50.715Z,115
2016-04-20T08:43:50.734Z,135
2016-04-20T08:44:50.737Z,145
2016-04-20T08:45:50.754Z,130
2016-04-20T08:46:50.601Z,130
2016-04-20T08:47:50.776Z,130
2016-04-20T08:48:50.763Z,135
2016-04-20T08:49:51.281Z,140
2016-04-20T08:50:50.643Z,135
2016-04-20T08:51:50.817Z,135
2016-04-20T08:52:50.789Z,135
2016-04-20T08:53:50.808Z,120
2016-04-20T08:54:50.810Z,110
2016-04-20T08:55:50.828Z,120
2016-04-20T08:56:50.830Z,115
2016-04-20T08:57:50.850Z,140
2016-04-20T08:58:50.836Z,145
2016-04-20T08:59:50.839Z,140
2016-04-20T09:00:50.858Z,140
2016-04-20T09:01:50.875Z,140
2016-04-20T09:02:50.878Z,135
2016-04-20T09:03:50.912Z,130
2016-04-20T09:04:51.008Z,130
2016-04-20T09:05:50.901Z,130
2016-04-20T09:06:50.921Z,135
2016-04-20T09:07:50.923Z,135
2016-04-20T09:08:50.926Z,140
2016-04-20T09:09:50.929Z,145
2016-04-20T09:10:50.947Z,145
2016-04-20T09:11:50.965Z,145
2016-04-20T09:12:50.952Z,140
2016-04-20T09:13:50.955Z,145
2016-04-20T09:14:50.973Z,145
2016-04-20T09:15:51.007Z,140
2016-04-20T09:16:50.994Z,140
2016-04-20T09:17:50.997Z,140
2016-04-20T09:18:51.000Z,140
2016-04-20T09:19:51.409Z,140
2016-04-20T09:20:51.036Z,140
2016-04-20T09:21:51.045Z,125
2016-04-20T09:22:51.041Z,115
2016-04-20T09:23:51.044Z,135
2016-04-20T09:24:51.061Z,130
2016-04-20T09:25:51.049Z,130
2016-04-20T09:26:51.066Z,130
2016-04-20T09:27:51.069Z,125
2016-04-20T09:28:53.401Z,125
2016-04-20T09:29:51.091Z,120
2016-04-20T09:30:51.109Z,110
2016-04-20T09:31:51.112Z,120
2016-04-20T09:32:51.114Z,115
2016-04-20T09:33:51.132Z,120
2016-04-20T09:34:51.213Z,115
2016-04-20T09:35:51.137Z,115
2016-04-20T09:36:51.140Z,100
2016-04-20T09:37:51.174Z,105
2016-04-20T09:38:51.162Z,95
2016-04-20T09:39:51.180Z,95
2016-04-20T09:40:51.183Z,85
2016-04-20T09:41:51.186Z,110
2016-04-20T09:42:51.188Z,115
2016-04-20T09:43:51.191Z,95
2016-04-20T09:44:51.193Z,110
2016-04-20T09:45:51.211Z,100
2016-04-20T09:46:51.214Z,110
2016-04-20T09:47:51.233Z,90
2016-04-20T09:48:51.251Z,105
2016-04-20T09:49:51.269Z,100
2016-04-20T09:50:51.256Z,100
2016-04-20T09:51:51.258Z,100
2016-04-20T09:52:51.277Z,100
2016-04-20T09:53:51.280Z,105
2016-04-20T09:54:51.283Z,110
2016-04-20T09:55:51.285Z,110
2016-04-20T09:56:51.304Z,105
2016-04-20T09:57:51.307Z,100
2016-04-20T09:58:51.324Z,95
2016-04-20T09:59:51.327Z,95
2016-04-20T10:00:52.142Z,95
2016-04-20T10:01:51.348Z,95
2016-04-20T10:02:51.351Z,90
2016-04-20T10:03:51.369Z,90
2016-04-20T10:04:51.372Z,90
2016-04-20T10:05:51.375Z,90
2016-04-20T10:06:51.377Z,90
2016-04-20T10:07:51.395Z,90
2016-04-20T10:08:51.398Z,90
2016-04-20T10:09:51.401Z,90
2016-04-20T10:10:51.420Z,90
2016-04-20T10:11:51.422Z,90
2016-04-20T10:12:51.425Z,90
2016-04-20T10:13:51.443Z,90
2016-04-20T10:14:51.446Z,90
2016-04-20T10:15:51.448Z,90
2016-04-20T10:16:51.467Z,90
2016-04-20T10:17:51.470Z,90
2016-04-20T10:18:51.472Z,90
2016-04-20T10:19:51.334Z,90
2016-04-20T10:20:51.478Z,90
2016-04-20T10:21:51.496Z,90
2016-04-20T10:22:51.342Z,90
2016-04-20T10:23:51.502Z,90
2016-04-20T10:24:51.519Z,90
2016-04-20T10:25:51.507Z,90
2016-04-20T10:26:51.509Z,90
2016-04-20T10:27:51.512Z,90
2016-04-20T10:28:51.530Z,85
2016-04-20T10:29:51.533Z,85
2016-04-20T10:30:51.535Z,85
2016-04-20T10:31:51.554Z,85
2016-04-20T10:32:51.541Z,85
2016-04-20T10:33:51.576Z,85
2016-04-20T10:34:51.547Z,85
2016-04-20T10:35:51.565Z,85
2016-04-20T10:36:51.551Z,85
2016-04-20T10:37:53.164Z,85
2016-04-20T10:38:51.557Z,85
2016-04-20T10:39:51.575Z,85
2016-04-20T10:40:51.579Z,85
2016-04-20T10:41:51.581Z,85
2016-04-20T10:42:51.584Z,85
2016-04-20T10:43:51.586Z,85
2016-04-20T10:44:51.589Z,85
2016-04-20T10:45:51.592Z,85
2016-04-20T10:46:51.611Z,85
2016-04-20T10:47:51.613Z,85
2016-04-20T10:48:51.616Z,80
2016-04-20T10:49:51.618Z,80
2016-04-20T10:50:51.621Z,80
2016-04-20T10:51:51.608Z,80
2016-04-20T10:52:51.626Z,80
2016-04-20T10:53:51.629Z,80
2016-04-20T10:54:51.632Z,80
2016-04-20T10:55:51.635Z,80
2016-04-20T10:56:51.637Z,80
2016-04-20T10:57:51.512Z,80
2016-04-20T10:58:51.657Z,80
2016-04-20T10:59:51.645Z,80
2016-04-20T11:00:51.679Z,80
2016-04-20T11:01:51.666Z,80
2016-04-20T11:02:51.669Z,80
2016-04-20T11:03:51.654Z,75
2016-04-20T11:04:51.562Z,80
2016-04-20T11:05:51.674Z,80
2016-04-20T11:06:51.676Z,75
2016-04-20T11:07:51.679Z,75
2016-04-20T11:08:51.682Z,75
2016-04-20T11:09:51.685Z,75
2016-04-20T11:10:51.687Z,75
2016-04-20T11:11:51.690Z,75
2016-04-20T11:12:51.693Z,75
2016-04-20T11:13:51.696Z,75
2016-04-20T11:14:51.698Z,75
2016-04-20T11:15:51.701Z,75
2016-04-20T11:16:51.719Z,75
2016-04-20T11:17:51.706Z,75
2016-04-20T11:18:51.709Z,75
2016-04-20T11:19:51.712Z,75
2016-04-20T11:20:51.715Z,75
2016-04-20T11:21:51.748Z,75
2016-04-20T11:22:51.720Z,75
2016-04-20T11:23:52.019Z,75
2016-04-20T11:24:51.725Z,75
2016-04-20T11:25:51.728Z,75
2016-04-20T11:26:51.746Z,75
2016-04-20T11:27:51.749Z,70
2016-04-20T11:28:51.766Z,70
2016-04-20T11:29:51.769Z,70
2016-04-20T11:30:51.757Z,70
2016-04-20T11:31:51.760Z,70
2016-04-20T11:32:51.763Z,70
2016-04-20T11:33:51.766Z,70
2016-04-20T11:34:51.768Z,70
2016-04-20T11:35:51.615Z,70
2016-04-20T11:36:51.773Z,70
2016-04-20T11:37:51.776Z,70
2016-04-20T11:38:51.763Z,70
2016-04-20T11:39:51.766Z,70
2016-04-20T11:40:51.768Z,70
2016-04-20T11:41:51.787Z,70
2016-04-20T11:42:51.789Z,70
2016-04-20T11:43:51.792Z,70
2016-04-20T11:44:51.778Z,70
2016-04-20T11:45:51.798Z,70
2016-04-20T11:46:51.800Z,65
2016-04-20T11:47:51.802Z,65
2016-04-20T11:48:51.806Z,65
2016-04-20T11:49:51.808Z,65
2016-04-20T11:50:51.811Z,65
2016-04-20T11:51:51.814Z,65
2016-04-20T11:52:51.816Z,65
2016-04-20T11:53:51.819Z,65
2016-04-20T11:54:51.822Z,65
2016-04-20T11:55:51.824Z,65
2016-04-20T11:56:51.827Z,65
2016-04-20T11:57:51.829Z,65
2016-04-20T11:58:51.816Z,65
2016-04-20T11:59:51.836Z,65
2016-04-20T12:00:51.838Z,65
2016-04-20T12:01:51.825Z,65
2016-04-20T12:02:51.843Z,65
2016-04-20T12:03:51.829Z,65
2016-04-20T12:04:51.832Z,65
2016-04-20T12:05:51.742Z,65
2016-04-20T12:06:51.854Z,65
2016-04-20T12:07:51.857Z,60
2016-04-20T12:08:51.843Z,60
2016-04-20T12:09:51.862Z,60
2016-04-20T12:10:51.864Z,60
2016-04-20T12:11:51.882Z,60
2016-04-20T12:12:51.855Z,60
2016-04-20T12:13:51.857Z,60
2016-04-20T12:14:51.860Z,60
2016-04-20T12:15:51.878Z,60
2016-04-20T12:16:51.880Z,60
2016-04-20T12:17:51.884Z,60
2016-04-20T12:18:51.887Z,60
2016-04-20T12:19:51.904Z,60
2016-04-20T12:20:51.954Z,60
2016-04-20T12:21:51.894Z,60
2016-04-20T12:22:51.897Z,60
2016-04-20T12:23:51.900Z,60
2016-04-20T12:24:51.902Z,60
2016-04-20T12:25:52.170Z,60
2016-04-20T12:26:51.907Z,60
2016-04-20T12:27:52.113Z,55
2016-04-20T12:28:51.944Z,55
2016-04-20T12:29:51.931Z,55
2016-04-20T12:30:51.933Z,55
2016-04-20T12:31:51.937Z,55
2016-04-20T12:32:51.938Z,55
2016-04-20T12:33:51.941Z,55
2016-04-20T12:34:51.929Z,55
2016-04-20T12:35:52.260Z,55
2016-04-20T12:36:51.950Z,55
2016-04-20T12:37:51.953Z,55
2016-04-20T12:38:51.955Z,55
2016-04-20T12:39:51.958Z,55
2016-04-20T12:40:51.961Z,55
2016-04-20T12:41:51.964Z,55
2016-04-20T12:42:51.966Z,55
2016-04-20T12:43:51.968Z,55
2016-04-20T12:44:51.987Z,55
2016-04-20T12:45:51.990Z,50
2016-04-20T12:46:52.040Z,50
2016-04-20T12:47:51.996Z,50
2016-04-20T12:48:52.014Z,50
2016-04-20T12:49:52.001Z,50
2016-04-20T12:50:52.316Z,50
2016-04-20T12:51:52.006Z,50
2016-04-20T12:52:52.009Z,50
2016-04-20T12:53:52.011Z,50
2016-04-20T12:54:52.014Z,50
2016-04-20T12:55:52.033Z,50
2016-04-20T12:56:52.036Z,50
2016-04-20T12:57:52.038Z,50
2016-04-20T12:58:52.041Z,50
2016-04-20T12:59:52.044Z,50
2016-04-20T13:00:52.046Z,50
2016-04-20T13:01:51.923Z,50
2016-04-20T13:02:52.051Z,50
2016-04-20T13:03:52.070Z,50
2016-04-20T13:04:52.104Z,50
2016-04-20T13:05:52.122Z,50
2016-04-20T13:06:52.077Z,50
2016-04-20T13:07:52.080Z,50
2016-04-20T13:08:52.083Z,50
2016-04-20T13:09:52.071Z,50
2016-04-20T13:10:52.088Z,45
2016-04-20T13:11:52.090Z,50
2016-04-20T13:12:52.578Z,45
2016-04-20T13:13:52.081Z,45
2016-04-20T13:14:52.099Z,45
2016-04-20T13:15:52.102Z,45
2016-04-20T13:16:52.104Z,45
2016-04-20T13:17:52.107Z,45
2016-04-20T13:18:52.110Z,45
2016-04-20T13:19:52.128Z,45
2016-04-20T13:20:51.928Z,45
2016-04-20T13:21:52.118Z,45
2016-04-20T13:22:52.136Z,45
2016-04-20T13:23:52.139Z,45
2016-04-20T13:24:52.125Z,45
2016-04-20T13:25:52.144Z,45
2016-04-20T13:26:52.147Z,45
2016-04-20T13:27:52.134Z,45
2016-04-20T13:28:52.153Z,45
2016-04-20T13:29:52.139Z,45
2016-04-20T13:30:52.142Z,45
2016-04-20T13:31:52.160Z,45
2016-04-20T13:32:52.148Z,45
2016-04-20T13:33:52.166Z,45
2016-04-20T13:34:52.153Z,45
2016-04-20T13:35:52.280Z,45
2016-04-20T13:36:52.158Z,45
2016-04-20T13:37:52.160Z,45
2016-04-20T13:38:52.164Z,45
2016-04-20T13:39:52.151Z,45
2016-04-20T13:40:52.154Z,45
2016-04-20T13:41:52.157Z,45
2016-04-20T13:42:52.174Z,45
2016-04-20T13:43:52.176Z,45
2016-04-20T13:44:52.196Z,45
2016-04-20T13:45:52.198Z,45
2016-04-20T13:46:52.170Z,45
2016-04-20T13:47:52.172Z,45
2016-04-20T13:48:52.176Z,45
2016-04-20T13:49:52.178Z,45
2016-04-20T13:50:52.196Z,45
2016-04-20T13:51:52.183Z,45
2016-04-20T13:52:52.187Z,45
2016-04-20T13:53:52.189Z,45
2016-04-20T13:54:52.206Z,45
2016-04-20T13:55:52.037Z,45
2016-04-20T13:56:52.040Z,45
2016-04-20T13:57:52.214Z,45
2016-04-20T13:58:52.218Z,45
2016-04-20T13:59:52.220Z,45
2016-04-20T14:00:52.208Z,45
2016-04-20T14:01:52.211Z,45
2016-04-20T14:02:52.228Z,45
2016-04-20T14:03:52.216Z,45
2016-04-20T14:04:52.218Z,45
2016-04-20T14:05:52.221Z,45
2016-04-20T14:06:52.254Z,45
2016-04-20T14:07:52.227Z,45
2016-04-20T14:08:52.244Z,45
2016-04-20T14:09:52.247Z,45
2016-04-20T14:10:52.094Z,45
2016-04-20T14:11:52.237Z,45
2016-04-20T14:12:52.240Z,45
2016-04-20T14:13:52.243Z,45
2016-04-20T14:14:52.246Z,45
2016-04-20T14:15:52.248Z,45
2016-04-20T14:16:52.250Z,45
2016-04-20T14:17:52.268Z,45
2016-04-20T14:18:52.256Z,45
2016-04-20T14:19:52.274Z,45
2016-04-20T14:20:52.355Z,45
2016-04-20T14:21:52.123Z,45
2016-04-20T14:22:52.283Z,45
2016-04-20T14:23:52.113Z,45
2016-04-20T14:24:52.273Z,45
2016-04-20T14:25:52.276Z,45
2016-04-20T14:26:52.357Z,45
2016-04-20T14:27:52.281Z,45
2016-04-20T14:28:52.299Z,45
2016-04-20T14:29:52.302Z,45
2016-04-20T14:30:52.337Z,45
2016-04-20T14:31:52.292Z,45
2016-04-20T14:32:52.356Z,45
2016-04-20T14:33:52.297Z,45
2016-04-20T14:34:52.300Z,45
2016-04-20T14:35:52.318Z,45
2016-04-20T14:36:52.320Z,40
2016-04-20T14:37:52.323Z,40
2016-04-20T14:38:52.326Z,40
2016-04-20T14:39:52.376Z,40
2016-04-20T14:40:52.331Z,40
2016-04-20T14:41:52.334Z,40
2016-04-20T14:42:52.353Z,40
2016-04-20T14:43:52.339Z,40
2016-04-20T14:44:52.342Z,40
2016-04-20T14:45:52.330Z,40
2016-04-20T14:46:56.114Z,40
2016-04-20T14:47:52.350Z,40
2016-04-20T14:48:52.338Z,40
2016-04-20T14:49:52.341Z,40
2016-04-20T14:50:52.343Z,40
2016-04-20T14:51:52.346Z,40
2016-04-20T14:52:52.348Z,40
2016-04-20T14:53:52.351Z,40
2016-04-20T14:54:52.354Z,40
2016-04-20T14:55:52.372Z,40
2016-04-20T14:56:52.374Z,40
2016-04-20T14:57:52.362Z,40
2016-04-20T14:58:52.380Z,40
2016-04-20T14:59:52.368Z,40
2016-04-20T15:00:52.370Z,40
2016-04-20T15:01:52.388Z,40
2016-04-20T15:02:52.390Z,40
2016-04-20T15:03:52.393Z,40
2016-04-20T15:04:52.395Z,40
2016-04-20T15:05:52.398Z,40
2016-04-20T15:06:52.401Z,40
2016-04-20T15:07:52.389Z,40
2016-04-20T15:08:52.407Z,40
2016-04-20T15:09:52.426Z,40
2016-04-20T15:10:52.428Z,40
2016-04-20T15:11:52.400Z,40
2016-04-20T15:12:52.417Z,40
2016-04-20T15:13:52.420Z,40
2016-04-20T15:14:52.438Z,40
2016-04-20T15:15:52.441Z,40
2016-04-20T15:16:52.428Z,40
2016-04-20T15:17:52.415Z,40
2016-04-20T15:18:52.449Z,40
2016-04-20T15:19:52.436Z,40
2016-04-20T15:20:52.439Z,40
2016-04-20T15:21:52.441Z,40
2016-04-20T15:22:52.460Z,40
2016-04-20T15:23:52.463Z,40
2016-04-20T15:24:52.449Z,40
2016-04-20T15:25:52.452Z,40
2016-04-20T15:26:52.299Z,40
2016-04-20T15:27:52.457Z,40
2016-04-20T15:28:52.461Z,40
2016-04-20T15:29:52.463Z,40
2016-04-20T15:30:52.466Z,40
2016-04-20T15:31:52.468Z,40
2016-04-20T15:32:52.471Z,40
2016-04-20T15:33:52.318Z,40
2016-04-20T15:34:52.476Z,40
2016-04-20T15:35:52.479Z,40
2016-04-20T15:36:52.486Z,40
2016-04-20T15:37:52.489Z,40
2016-04-20T15:38:52.508Z,40
2016-04-20T15:39:52.494Z,40
2016-04-20T15:40:52.514Z,40
2016-04-20T15:41:52.516Z,40
2016-04-20T15:42:52.519Z,40
2016-04-20T15:43:52.506Z,40
2016-04-20T15:44:52.509Z,40
2016-04-20T15:45:52.527Z,40
2016-04-20T15:46:52.545Z,40
2016-04-20T15:47:52.533Z,40
2016-04-20T15:48:52.551Z,40
2016-04-20T15:49:52.397Z,40
2016-04-20T15:50:52.541Z,40
2016-04-20T15:51:52.699Z,40
2016-04-20T15:52:52.546Z,40
2016-04-20T15:53:52.549Z,40
2016-04-20T15:54:52.395Z,40
2016-04-20T15:55:52.569Z,40
2016-04-20T15:56:52.556Z,40
2016-04-20T15:57:52.559Z,40
2016-04-20T15:58:52.630Z,40
2016-04-20T15:59:52.658Z,40
2016-04-20T16:00:52.703Z,40
2016-04-20T16:01:52.747Z,40
2016-04-20T16:02:52.531Z,40
2016-04-20T16:03:52.677Z,40
2016-04-20T16:04:52.849Z,40
2016-04-20T16:06:55.504Z,40
2016-04-20T16:07:08.207Z,40
2016-04-20T16:08:08.175Z,40
2016-04-20T16:09:08.199Z,40
2016-04-20T16:10:08.052Z,40
2016-04-20T16:11:08.230Z,35
2016-04-20T16:12:08.208Z,35
2016-04-20T16:13:08.214Z,35
2016-04-20T16:14:08.235Z,35
2016-04-20T16:15:08.240Z,35
2016-04-20T16:16:08.260Z,35
2016-04-20T16:17:08.263Z,35
2016-04-20T16:18:08.253Z,35
2016-04-20T16:19:08.257Z,35
2016-04-20T16:20:08.260Z,35
2016-04-20T16:21:08.264Z,35
2016-04-20T16:22:08.267Z,35
2016-04-20T16:23:08.271Z,35
2016-04-20T16:24:08.273Z,35
2016-04-20T16:25:08.291Z,35
2016-04-20T16:26:08.294Z,35
2016-04-20T16:27:08.282Z,35
2016-04-20T16:28:08.300Z,35
2016-04-20T16:29:08.303Z,35
2016-04-20T16:30:08.306Z,35
2016-04-20T16:31:08.309Z,35
2016-04-20T16:32:08.311Z,35
2016-04-20T16:33:08.299Z,35
2016-04-20T16:34:08.301Z,35
2016-04-20T16:35:08.304Z,35
2016-04-20T16:36:08.338Z,35
2016-04-20T16:37:08.309Z,35
2016-04-20T16:38:08.312Z,35
2016-04-20T16:39:08.346Z,35
2016-04-20T16:40:08.333Z,35
2016-04-20T16:41:08.335Z,35
2016-04-20T16:42:08.338Z,35
2016-04-20T16:43:08.373Z,35
2016-04-20T16:44:08.359Z,35
2016-04-20T16:45:08.362Z,35
2016-04-20T16:46:08.349Z,35
2016-04-20T16:47:08.367Z,35
2016-04-20T16:48:08.354Z,35
2016-04-20T16:49:08.357Z,30
2016-04-20T16:50:08.376Z,30
2016-04-20T16:51:08.223Z,30
2016-04-20T16:52:08.365Z,30
2016-04-20T16:53:08.415Z,30
2016-04-20T16:54:08.386Z,30
2016-04-20T16:55:08.373Z,30
2016-04-20T16:56:08.376Z,30
2016-04-20T16:57:08.394Z,30
2016-04-20T16:58:08.413Z,30
2016-04-20T16:59:08.400Z,30
2016-04-20T17:00:08.403Z,30
2016-04-20T17:01:08.389Z,30
2016-04-20T17:02:08.424Z,30
2016-04-20T17:03:08.394Z,30
2016-04-20T17:04:08.413Z,30
2016-04-20T17:05:08.447Z,30
2016-04-20T17:06:08.435Z,30
2016-04-20T17:07:08.405Z,30
2016-04-20T17:08:08.440Z,30
2016-04-20T17:09:08.411Z,30
2016-04-20T17:10:08.445Z,30
2016-04-20T17:11:08.276Z,25
2016-04-20T17:12:08.623Z,25
2016-04-20T17:13:08.438Z,25
2016-04-20T17:14:08.424Z,25
2016-04-20T17:15:08.459Z,25
2016-04-20T17:16:08.430Z,25
2016-04-20T17:17:08.449Z,25
2016-04-20T17:18:08.326Z,25
2016-04-20T17:19:08.484Z,25
2016-04-20T17:20:08.472Z,25
2016-04-20T17:21:08.490Z,25
2016-04-20T17:22:08.462Z,25
2016-04-20T17:23:08.465Z,25
2016-04-20T17:24:08.467Z,25
2016-04-20T17:25:08.486Z,25
2016-04-20T17:26:08.489Z,25
2016-04-20T17:27:08.491Z,25
2016-04-20T17:28:08.493Z,25
2016-04-20T17:29:08.480Z,25
2016-04-20T17:30:08.484Z,20
2016-04-20T17:31:08.486Z,20
2016-04-20T17:32:08.504Z,20
2016-04-20T17:33:08.508Z,20
2016-04-20T17:34:08.510Z,20
2016-04-20T17:35:08.528Z,20
2016-04-20T17:36:08.563Z,20
2016-04-20T17:37:08.549Z,20
2016-04-20T17:38:08.536Z,20
2016-04-20T17:39:08.523Z,20
2016-04-20T17:40:08.510Z,20
2016-04-20T17:41:08.513Z,20
2016-04-20T17:42:08.532Z,20
2016-04-20T17:43:08.535Z,20
2016-04-20T17:44:08.521Z,20
2016-04-20T17:45:08.524Z,15
2016-04-20T17:46:08.543Z,15
2016-04-20T17:47:08.560Z,15
2016-04-20T17:48:08.548Z,15
2016-04-20T17:49:08.565Z,15
2016-04-20T17:50:08.554Z,15
2016-04-20T17:51:08.540Z,15
2016-04-20T17:52:08.559Z,15
2016-04-20T17:53:08.451Z,15
2016-04-20T17:54:12.929Z,15
2016-04-20T17:55:08.557Z,15
2016-04-20T17:56:08.559Z,15
2016-04-20T17:57:08.593Z,15
2016-04-20T17:58:08.565Z,15
2016-04-20T17:59:08.567Z,10
2016-04-20T18:00:08.570Z,10
2016-04-20T18:01:07.822Z,10
2016-04-20T18:02:08.575Z,10
2016-04-20T18:03:08.594Z,10
2016-04-20T18:04:08.580Z,10
2016-04-20T18:05:08.615Z,10
2016-04-20T18:06:08.586Z,10
2016-04-20T18:07:08.321Z,10
2016-04-20T18:08:08.605Z,10
2016-04-20T18:09:08.609Z,10
2016-04-20T18:10:08.611Z,10
2016-04-20T18:11:08.644Z,10
2016-04-20T18:12:08.632Z,5
2016-04-20T18:13:08.650Z,5
2016-04-20T18:14:08.636Z,5
2016-04-20T18:15:08.639Z,5
2016-04-20T18:16:08.642Z,5
2016-04-20T18:17:08.680Z,5
2016-04-20T18:18:08.668Z,5
2016-04-20T18:19:08.685Z,5
2016-04-20T18:20:08.672Z,5
2016-04-20T18:21:08.676Z,5
2016-04-20T18:22:08.683Z,5
2016-04-20T18:23:08.686Z,5
2016-04-20T18:24:08.689Z,5
2016-04-20T18:25:08.691Z,5
2016-04-20T18:26:08.708Z,5
2016-04-20T18:27:08.556Z,0
2016-04-20T18:28:08.730Z,0
2016-04-20T18:29:08.717Z,0
2016-04-20T18:30:08.720Z,0
2016-04-20T18:31:08.754Z,0
2016-04-20T18:32:08.757Z,0
2016-04-20T18:33:08.744Z,0
2016-04-20T18:34:08.762Z,0
2016-04-20T18:35:08.765Z,0
2016-04-20T18:36:08.768Z,0
2016-04-20T18:37:08.786Z,0
2016-04-20T18:38:08.788Z,0
2016-04-20T18:39:08.791Z,0
2016-04-20T18:40:08.779Z,0
2016-04-20T18:41:08.797Z,0
2016-04-20T18:42:08.815Z,0
2016-04-20T18:43:08.818Z,0
2016-04-20T18:44:08.820Z,0
2016-04-20T18:45:08.823Z,0
2016-04-20T18:46:08.684Z,0
2016-04-20T18:47:08.719Z,0
2016-04-20T18:48:08.846Z,0
2016-04-20T18:49:08.849Z,0
2016-04-20T18:50:08.851Z,0
2016-04-20T18:51:08.886Z,0
2016-04-20T18:52:08.716Z,0
2016-04-20T18:53:08.876Z,0
2016-04-20T18:54:08.878Z,0
2016-04-20T18:55:08.912Z,0
2016-04-20T18:56:08.884Z,0
2016-04-20T18:57:08.917Z,0
2016-04-20T18:58:08.905Z,0
2016-04-20T18:59:08.923Z,0
2016-04-20T19:00:08.925Z,0
2016-04-20T19:01:09.070Z,0
2016-04-20T19:02:08.931Z,0
2016-04-20T19:03:08.949Z,0
2016-04-20T19:04:08.796Z,0
2016-04-20T19:05:08.955Z,0
2016-04-20T19:06:08.974Z,0
2016-04-20T19:07:08.852Z,0
2016-04-20T19:08:08.978Z,0
2016-04-20T19:09:08.981Z,0
2016-04-20T19:10:08.984Z,0
2016-04-20T19:11:09.002Z,0
2016-04-20T19:12:09.004Z,0
2016-04-20T19:13:09.008Z,0
2016-04-20T19:14:08.995Z,0
2016-04-20T19:15:09.029Z,0
2016-04-20T19:16:09.032Z,0
2016-04-20T19:17:09.034Z,0
2016-04-20T19:18:09.036Z,0
2016-04-20T19:19:09.039Z,0
2016-04-20T19:20:09.057Z,0
2016-04-20T19:21:09.060Z,0
2016-04-20T19:22:09.079Z,0
2016-04-20T19:23:09.065Z,0
2016-04-20T19:24:09.100Z,0
2016-04-20T19:25:09.086Z,0
2016-04-20T19:26:09.089Z,0
2016-04-20T19:27:09.108Z,0
2016-04-20T19:28:09.126Z,0
2016-04-20T19:29:09.113Z,0
2016-04-20T19:30:09.116Z,0
2016-04-20T19:31:12.619Z,0
2016-04-20T19:32:09.136Z,0
2016-04-20T19:33:09.125Z,0
2016-04-20T19:34:09.142Z,0
2016-04-20T19:35:09.144Z,0
2016-04-20T19:36:08.991Z,0
2016-04-20T19:37:09.166Z,0
2016-04-20T19:38:09.184Z,0
2016-04-20T19:39:09.172Z,0
2016-04-20T19:40:09.190Z,0
2016-04-20T19:41:09.208Z,0
2016-04-20T19:42:09.196Z,0
2016-04-20T19:43:09.198Z,0
2016-04-20T19:44:09.232Z,0
2016-04-20T19:45:09.234Z,0
2016-04-20T19:46:09.237Z,0
2016-04-20T19:47:09.240Z,0
2016-04-20T19:48:09.243Z,0
2016-04-20T19:49:09.245Z,0
2016-04-20T19:50:09.248Z,0
2016-04-20T19:51:09.251Z,0
2016-04-20T19:52:09.284Z,0
2016-04-20T19:53:09.271Z,0
2016-04-20T19:54:09.273Z,0
2016-04-20T19:55:09.276Z,0
2016-04-20T19:56:09.295Z,0
2016-04-20T19:57:09.314Z,0
2016-04-20T19:58:09.300Z,0
2016-04-20T19:59:09.319Z,0
2016-04-20T20:00:09.322Z,0
2016-04-20T20:01:09.325Z,0
2016-04-20T20:02:09.327Z,0
2016-04-20T20:03:09.330Z,0
2016-04-20T20:04:09.363Z,0
2016-04-20T20:05:09.336Z,0
2016-04-20T20:06:09.056Z,0
2016-04-20T20:07:09.372Z,0
2016-04-20T20:08:09.358Z,0
2016-04-20T20:09:09.361Z,0
2016-04-20T20:10:09.379Z,0
2016-04-20T20:11:09.382Z,0
2016-04-20T20:12:09.402Z,0
2016-04-20T20:13:09.403Z,0
2016-04-20T20:14:09.421Z,0
2016-04-20T20:15:09.424Z,0
2016-04-20T20:16:09.412Z,0
2016-04-20T20:17:09.446Z,0
2016-04-20T20:18:09.448Z,0
2016-04-20T20:19:09.451Z,0
2016-04-20T20:20:09.454Z,0
2016-04-20T20:21:09.456Z,0
2016-04-20T20:22:09.515Z,0
2016-04-20T20:23:09.479Z,0
2016-04-20T20:24:09.482Z,0
2016-04-20T20:25:09.484Z,0
2016-04-20T20:26:09.487Z,0
2016-04-20T20:27:09.724Z,0
2016-04-20T20:28:09.493Z,0
2016-04-20T20:29:09.558Z,0
2016-04-20T20:30:09.497Z,0
2016-04-20T20:31:09.564Z,0
2016-04-20T20:32:09.503Z,0
2016-04-20T20:33:09.522Z,0
2016-04-20T20:34:09.524Z,0
2016-04-20T20:35:09.527Z,0
2016-04-20T20:36:09.389Z,0
2016-04-20T20:37:09.548Z,0
2016-04-20T20:38:09.536Z,0
2016-04-20T20:39:09.554Z,0
2016-04-20T20:40:09.556Z,0
2016-04-20T20:41:09.574Z,0
2016-04-20T20:42:09.577Z,0
2016-04-20T20:43:09.611Z,0
2016-04-20T20:44:09.598Z,0
2016-04-20T20:45:09.648Z,0
2016-04-20T20:46:09.603Z,0
2016-04-20T20:47:09.623Z,0
2016-04-20T20:48:09.625Z,0
2016-04-20T20:49:09.611Z,0
2016-04-20T20:50:09.631Z,0
2016-04-20T20:51:09.664Z,0
2016-04-20T20:52:09.650Z,0
2016-04-20T20:53:09.638Z,0
2016-04-20T20:54:09.642Z,0
2016-04-20T20:55:09.644Z,0
2016-04-20T20:56:09.662Z,0
2016-04-20T20:57:09.680Z,0
2016-04-20T20:58:09.698Z,0
2016-04-20T20:59:09.685Z,0
2016-04-20T21:00:11.704Z,0
2016-04-20T21:01:10.191Z,0
2016-04-20T21:02:09.710Z,0
2016-04-20T21:03:09.712Z,0
2016-04-20T21:04:09.716Z,0
2016-04-20T21:05:09.734Z,0
2016-04-20T21:06:09.721Z,0
2016-04-20T21:07:09.739Z,0
2016-04-20T21:08:09.726Z,0
2016-04-20T21:09:09.744Z,0
2016-04-20T21:10:09.747Z,0
2016-04-20T21:11:09.017Z,0
2016-04-20T21:12:09.768Z,0
2016-04-20T21:13:09.771Z,0
2016-04-20T21:14:09.774Z,0
2016-04-20T21:15:09.792Z,0
2016-04-20T21:16:09.826Z,0
2016-04-20T21:17:09.641Z,0
2016-04-20T21:18:09.800Z,0
2016-04-20T21:19:09.803Z,0
2016-04-20T21:20:09.805Z,0
2016-04-20T21:21:09.839Z,0
2016-04-20T21:22:09.841Z,0
2016-04-20T21:23:09.813Z,0
2016-04-20T21:24:09.832Z,0
2016-04-20T21:25:09.850Z,0
2016-04-20T21:26:09.852Z,0
2016-04-20T21:27:09.855Z,0
2016-04-20T21:28:09.843Z,0
2016-04-20T21:29:09.861Z,0
2016-04-20T21:30:09.863Z,0
2016-04-20T21:31:13.663Z,0
2016-04-20T21:32:09.885Z,0
2016-04-20T21:33:09.887Z,0
2016-04-20T21:34:09.906Z,0
2016-04-20T21:35:09.893Z,0
2016-04-20T21:36:09.895Z,0
2016-04-20T21:37:09.929Z,0
2016-04-20T21:38:09.917Z,0
2016-04-20T21:39:09.920Z,0
2016-04-20T21:40:09.938Z,0
2016-04-20T21:41:09.956Z,0
2016-04-20T21:42:09.958Z,0
2016-04-20T21:43:09.945Z,0
2016-04-20T21:44:09.964Z,0
2016-04-20T21:45:09.967Z,0
2016-04-20T21:46:09.985Z,0
2016-04-20T21:47:09.988Z,0
2016-04-20T21:48:09.974Z,0
2016-04-20T21:49:10.008Z,0
2016-04-20T21:50:09.980Z,0
2016-04-20T21:51:09.999Z,0
2016-04-20T21:52:10.002Z,0
2016-04-20T21:53:10.004Z,0
2016-04-20T21:54:10.022Z,0
2016-04-20T21:55:10.025Z,0
2016-04-20T21:56:10.027Z,0
2016-04-20T21:57:10.030Z,0
2016-04-20T21:58:10.048Z,0
2016-04-20T21:59:10.035Z,0
2016-04-20T22:00:10.054Z,0
2016-04-20T22:01:09.915Z,0
2016-04-20T22:02:10.060Z,0
2016-04-20T22:03:10.076Z,0
2016-04-20T22:04:10.080Z,0
2016-04-20T22:05:10.099Z,0
2016-04-20T22:06:10.117Z,0
2016-04-20T22:07:10.120Z,0
2016-04-20T22:08:10.106Z,0
2016-04-20T22:09:10.109Z,0
2016-04-20T22:10:10.112Z,0
2016-04-20T22:11:10.130Z,0
2016-04-20T22:12:10.133Z,0
2016-04-20T22:13:10.150Z,0
2016-04-20T22:14:10.139Z,0
2016-04-20T22:15:10.141Z,0
2016-04-20T22:16:10.159Z,0
2016-04-20T22:17:10.146Z,0
2016-04-20T22:18:10.165Z,0
2016-04-20T22:19:10.152Z,0
2016-04-20T22:20:10.170Z,0
2016-04-20T22:21:10.188Z,0
2016-04-20T22:22:10.191Z,0
2016-04-20T22:23:10.177Z,0
2016-04-20T22:24:10.196Z,0
2016-04-20T22:25:10.200Z,0
2016-04-20T22:26:10.202Z,0
2016-04-20T22:27:10.205Z,0
2016-04-20T22:28:10.207Z,0
2016-04-20T22:29:10.226Z,0
2016-04-20T22:30:10.244Z,0
2016-04-20T22:31:10.246Z,0
2016-04-20T22:32:10.249Z,0
2016-04-20T22:33:10.236Z,0
2016-04-20T22:34:10.254Z,0
2016-04-20T22:35:10.257Z,0
2016-04-20T22:36:10.259Z,0
2016-04-20T22:37:10.294Z,0
2016-04-20T22:38:10.265Z,0
2016-04-20T22:39:10.299Z,0
2016-04-20T22:40:10.302Z,0
2016-04-20T22:41:10.289Z,0
2016-04-20T22:42:10.292Z,0
2016-04-20T22:43:10.294Z,0
2016-04-20T22:44:10.328Z,0
2016-04-20T22:45:10.315Z,0
2016-04-20T22:46:10.334Z,0
2016-04-20T22:47:10.321Z,0
2016-04-20T22:48:10.322Z,0
2016-04-20T22:49:10.342Z,0